createdAt,value
2022-11-05T00:02:46.551Z,96.00
2022-11-05T00:08:09.358Z,96.41
2022-11-05T00:13:29.853Z,96.27
2022-11-05T00:18:31.471Z,96.56
2022-11-05T00:23:51.654Z,96.44
2022-11-05T00:28:53.235Z,95.91
2022-11-05T00:33:54.861Z,95.74
2022-11-05T00:38:56.476Z,95.89
2022-11-05T00:44:16.878Z,96.34
2022-11-05T00:49:30.221Z,95.86
2022-11-05T00:54:31.807Z,95.87
2022-11-05T00:59:33.403Z,96.03
2022-11-05T01:04:35.069Z,95.44
2022-11-05T01:09:36.675Z,95.89
2022-11-05T01:14:38.255Z,95.98
2022-11-05T01:19:39.861Z,96.06
2022-11-05T01:24:41.633Z,95.67
2022-11-05T01:29:43.280Z,95.79
2022-11-05T01:34:46.463Z,95.85
2022-11-05T01:39:48.039Z,95.67
2022-11-05T01:44:54.693Z,95.79
2022-11-05T01:49:59.496Z,95.63
2022-11-05T01:55:02.368Z,96.03
2022-11-05T02:00:04.881Z,95.69
2022-11-05T02:05:15.200Z,95.33
2022-11-05T02:10:20.614Z,95.16
2022-11-05T02:15:51.981Z,95.42
2022-11-05T02:21:06.781Z,95.64
2022-11-05T02:26:35.242Z,95.03
2022-11-05T02:32:19.480Z,94.99
2022-11-05T02:37:41.516Z,95.23
2022-11-05T02:42:47.409Z,95.01
2022-11-05T02:48:15.195Z,95.03
2022-11-05T02:53:27.844Z,95.13
2022-11-05T02:58:29.500Z,95.09
2022-11-05T03:03:35.015Z,95.29
2022-11-05T03:08:55.161Z,95.52
2022-11-05T03:14:10.878Z,95.47
2022-11-05T03:19:55.404Z,95.57
2022-11-05T03:25:01.813Z,96.05
2022-11-05T03:30:05.498Z,95.75
2022-11-05T03:35:40.359Z,95.81
2022-11-05T03:40:42.791Z,95.59
2022-11-05T03:45:47.897Z,95.67
2022-11-05T03:50:55.943Z,95.51
2022-11-05T03:56:02.065Z,95.13
2022-11-05T04:01:04.156Z,95.09
2022-11-05T04:06:26.008Z,95.02
2022-11-05T04:11:46.103Z,94.92
2022-11-05T04:17:06.250Z,94.52
2022-11-05T04:22:26.043Z,94.55
2022-11-05T04:27:27.659Z,94.32
2022-11-05T04:32:29.255Z,94.52
2022-11-05T04:37:30.870Z,94.64
2022-11-05T04:42:32.462Z,94.49
2022-11-05T04:47:34.167Z,94.43
2022-11-05T04:52:35.758Z,94.55
2022-11-05T04:57:37.656Z,94.47
2022-11-05T05:02:39.293Z,94.89
2022-11-05T05:07:41.957Z,95.30
2022-11-05T05:12:43.856Z,94.70
2022-11-05T05:17:51.196Z,94.72
2022-11-05T05:22:53.968Z,95.12
2022-11-05T05:27:58.813Z,95.21
2022-11-05T05:33:04.059Z,95.28
2022-11-05T05:38:05.686Z,95.49
2022-11-05T05:43:07.387Z,95.79
2022-11-05T05:48:09.018Z,95.78
2022-11-05T05:53:10.825Z,95.53
2022-11-05T05:58:12.601Z,96.11
2022-11-05T06:03:14.707Z,95.69
2022-11-05T06:08:16.450Z,95.71
2022-11-05T06:13:18.040Z,95.62
2022-11-05T06:18:20.074Z,95.19
2022-11-05T06:23:22.051Z,95.02
2022-11-05T06:28:23.664Z,95.12
2022-11-05T06:33:26.260Z,94.99
2022-11-05T06:38:29.430Z,94.79
2022-11-05T06:43:31.205Z,94.24
2022-11-05T06:48:33.079Z,94.37
2022-11-05T06:53:35.143Z,94.67
2022-11-05T06:58:36.881Z,94.03
2022-11-05T07:03:38.697Z,93.43
2022-11-05T07:08:43.478Z,93.03
2022-11-05T07:13:45.168Z,92.63
2022-11-05T07:18:46.779Z,92.46
2022-11-05T07:23:48.708Z,91.98
2022-11-05T07:28:50.350Z,91.74
2022-11-05T07:33:51.967Z,91.38
2022-11-05T07:38:58.964Z,90.92
2022-11-05T07:44:03.319Z,90.73
2022-11-05T07:49:05.057Z,90.61
2022-11-05T07:54:06.653Z,90.27
2022-11-05T07:59:08.343Z,89.34
2022-11-05T08:04:09.976Z,89.23
2022-11-05T08:09:11.582Z,88.72
2022-11-05T08:14:13.378Z,87.92
2022-11-05T08:19:15.028Z,87.26
2022-11-05T08:24:18.359Z,87.04
2022-11-05T08:29:20.072Z,86.90
2022-11-05T08:34:21.740Z,86.74
2022-11-05T08:39:23.361Z,86.79
2022-11-05T08:44:25.118Z,86.82
2022-11-05T08:49:26.768Z,86.42
2022-11-05T08:54:28.548Z,84.76
2022-11-05T08:59:31.433Z,84.80
2022-11-05T09:04:33.161Z,85.41
2022-11-05T09:09:34.756Z,84.67
2022-11-05T09:14:36.433Z,85.04
2022-11-05T09:19:39.999Z,84.70
2022-11-05T09:24:43.187Z,83.52
2022-11-05T09:29:44.880Z,84.49
2022-11-05T09:34:48.514Z,85.08
2022-11-05T09:39:50.095Z,84.37
2022-11-05T09:44:59.364Z,84.32
2022-11-05T09:50:03.651Z,84.98
2022-11-05T09:55:25.534Z,84.64
2022-11-05T10:00:28.126Z,84.18
2022-11-05T10:05:29.892Z,83.54
2022-11-05T10:10:42.190Z,82.51
2022-11-05T10:15:49.744Z,81.94
2022-11-05T10:20:51.439Z,82.44
2022-11-05T10:26:05.716Z,80.48
2022-11-05T10:31:11.554Z,80.56
2022-11-05T10:36:34.328Z,79.85
2022-11-05T10:42:07.478Z,80.00
2022-11-05T10:47:17.167Z,78.03
2022-11-05T10:52:22.881Z,77.24
2022-11-05T10:57:37.021Z,78.02
2022-11-05T11:02:41.359Z,77.99
2022-11-05T11:07:43.079Z,78.21
2022-11-05T11:12:45.397Z,78.13
2022-11-05T11:17:47.654Z,78.69
2022-11-05T11:23:12.609Z,77.72
2022-11-05T11:41:31.603Z,76.67
2022-11-05T11:46:34.198Z,75.89
2022-11-05T11:51:49.668Z,75.24
2022-11-05T11:56:51.702Z,76.27
2022-11-05T12:02:28.444Z,76.60
2022-11-05T12:07:30.020Z,73.92
2022-11-05T12:12:50.877Z,74.74
2022-11-05T12:18:01.484Z,73.86
2022-11-05T12:23:24.794Z,72.12
2022-11-05T12:28:31.900Z,71.20
2022-11-05T12:33:55.188Z,72.58
2022-11-05T12:39:13.249Z,72.99
2022-11-05T12:44:36.818Z,73.39
2022-11-05T12:49:44.427Z,73.73
2022-11-05T12:54:58.880Z,74.35
2022-11-05T13:00:20.350Z,73.53
2022-11-05T13:05:36.983Z,73.59
2022-11-05T13:10:46.454Z,74.14
2022-11-05T13:15:51.922Z,74.04
2022-11-05T13:20:54.608Z,72.99
2022-11-05T13:26:02.462Z,71.80
2022-11-05T13:31:06.538Z,71.09
2022-11-05T13:36:33.319Z,70.26
2022-11-05T13:41:50.140Z,70.02
2022-11-05T13:47:05.157Z,69.18
2022-11-05T13:52:09.745Z,69.63
2022-11-05T13:57:11.325Z,69.94
2022-11-05T14:02:17.734Z,70.73
2022-11-05T14:07:25.082Z,71.67
2022-11-05T14:12:33.309Z,72.52
2022-11-05T14:17:54.587Z,74.05
2022-11-05T14:23:23.091Z,73.85
2022-11-05T14:28:33.916Z,73.50
2022-11-05T14:33:39.306Z,72.47
2022-11-05T14:38:56.856Z,72.59
2022-11-05T14:44:05.897Z,72.63
2022-11-05T14:49:17.504Z,73.25
2022-11-05T14:54:25.635Z,74.81
2022-11-05T14:59:28.323Z,75.04
2022-11-05T15:04:35.887Z,76.07
2022-11-05T15:09:44.969Z,77.20
2022-11-05T15:15:21.204Z,78.17
2022-11-05T15:20:40.620Z,78.91
2022-11-05T15:25:53.569Z,79.14
2022-11-05T15:30:59.811Z,80.28
2022-11-05T15:36:19.717Z,82.21
2022-11-05T15:41:23.869Z,82.24
2022-11-05T15:46:28.221Z,82.77
2022-11-05T15:51:29.992Z,83.24
2022-11-05T15:56:39.907Z,84.91
2022-11-05T16:01:57.078Z,84.83
2022-11-05T16:07:06.107Z,86.60
2022-11-05T16:12:14.053Z,86.30
2022-11-05T16:17:21.444Z,85.96
2022-11-05T16:22:23.416Z,86.37
2022-11-05T16:27:25.112Z,87.14
2022-11-05T16:32:31.160Z,87.21
2022-11-05T16:37:41.128Z,87.74
2022-11-05T16:42:43.367Z,88.35
2022-11-05T16:47:45.945Z,88.61
2022-11-05T16:52:47.943Z,87.78
2022-11-05T16:57:52.655Z,88.04
2022-11-05T17:02:54.705Z,88.15
2022-11-05T17:07:56.779Z,88.14
2022-11-05T17:12:58.465Z,89.01
2022-11-05T17:18:00.093Z,88.99
2022-11-05T17:23:02.266Z,89.61
2022-11-05T17:28:04.553Z,89.81
2022-11-05T17:33:06.273Z,90.22
2022-11-05T17:38:09.270Z,90.69
2022-11-05T17:43:11.262Z,90.43
2022-11-05T17:48:14.076Z,90.23
2022-11-05T17:53:18.018Z,90.26
2022-11-05T17:58:19.633Z,90.92
2022-11-05T18:03:21.219Z,90.63
2022-11-05T18:08:22.851Z,91.53
2022-11-05T18:13:24.520Z,91.06
2022-11-05T18:18:26.167Z,91.61
2022-11-05T18:23:27.832Z,91.34
2022-11-05T18:28:32.067Z,91.24
2022-11-05T18:33:33.920Z,91.25
2022-11-05T18:38:35.509Z,91.01
2022-11-05T18:43:37.096Z,90.93
2022-11-05T18:48:39.101Z,91.03
2022-11-05T18:53:41.301Z,90.37
2022-11-05T18:58:43.431Z,90.65
2022-11-05T19:03:45.206Z,90.15
2022-11-05T19:08:47.399Z,90.11
2022-11-05T19:13:49.314Z,90.87
2022-11-05T19:18:51.334Z,90.91
2022-11-05T19:23:53.512Z,90.69
2022-11-05T19:28:55.257Z,90.86
2022-11-05T19:33:56.946Z,90.80
2022-11-05T19:39:01.335Z,91.11
2022-11-05T19:44:03.155Z,91.39
2022-11-05T19:49:04.730Z,91.56
2022-11-05T19:54:06.606Z,92.28
2022-11-05T19:59:08.234Z,92.31
2022-11-05T20:04:11.884Z,92.01
2022-11-05T20:09:23.557Z,92.52
2022-11-05T20:14:26.213Z,92.31
2022-11-05T20:19:27.841Z,92.26
2022-11-05T20:24:29.549Z,92.02
2022-11-05T20:29:35.703Z,92.70
2022-11-05T20:34:37.972Z,92.78
2022-11-05T20:39:39.695Z,92.95
2022-11-05T20:44:41.394Z,92.86
2022-11-05T20:49:43.029Z,93.17
2022-11-05T20:54:44.659Z,93.08
2022-11-05T20:59:46.296Z,93.53
2022-11-05T21:04:47.960Z,93.48
2022-11-05T21:09:49.627Z,93.68
2022-11-05T21:14:52.289Z,92.75
2022-11-05T21:19:53.935Z,93.17
2022-11-05T21:24:56.791Z,92.98
2022-11-05T21:29:58.378Z,93.05
2022-11-05T21:35:00.144Z,93.14
2022-11-05T21:40:01.891Z,93.27
2022-11-05T21:45:03.744Z,93.55
2022-11-05T21:50:05.742Z,93.25
2022-11-05T21:55:26.182Z,93.26
2022-11-05T22:00:27.805Z,93.51
2022-11-05T22:05:30.655Z,93.95
2022-11-05T22:10:32.376Z,94.60
2022-11-05T22:15:36.446Z,94.75
2022-11-05T22:20:39.768Z,94.82
2022-11-05T22:25:41.385Z,95.48
2022-11-05T22:30:42.980Z,95.61
2022-11-05T22:35:47.480Z,96.22
2022-11-05T22:40:51.679Z,96.48
2022-11-05T22:46:07.073Z,96.63
2022-11-05T22:51:23.222Z,96.76
2022-11-05T22:56:35.285Z,97.48
2022-11-05T23:02:02.903Z,97.39
2022-11-05T23:07:47.256Z,97.84
2022-11-05T23:12:53.212Z,98.18
2022-11-05T23:18:18.716Z,98.35
2022-11-05T23:23:58.947Z,98.64
2022-11-05T23:29:09.205Z,98.73
2022-11-05T23:34:10.790Z,98.41
2022-11-05T23:39:12.416Z,98.54
2022-11-05T23:44:32.670Z,98.43
2022-11-05T23:49:34.256Z,98.41
2022-11-05T23:54:35.842Z,98.50
2022-11-05T23:59:37.430Z,98.81
